• Join FlightAware (Why Join?)
  • Login
  • US Flag 
10:08AM EDT


 

Airport Tracker/Info


-or-


 

Live Flight TrackerFlight Track Log ✈ BJS542 ✈ 13-Aug-2013 ✈ KDET - KORD

Flight Track Log - Related Links

Times and Time Zones

All times are in EDT time to prevent confusion due to time zone crossing. See the BJS542 flight status page for this flight to view local times or setup timezone preferences in your user account.

Time Position Orientation Groundspeed Altitude Reporting Facility
EDT Latitude Longitude Course Direction KTS MPH feet Rate Location/Type
06:17PM 42.4947 -83.2161 277° West 261 300 9,900  Level Cleveland Center
06:18PM 42.5014 -83.2869 277° West 284 327 10,000  Climbing Cleveland Center
06:19PM 42.4925 -83.3992 264° West 309 356 10,000  Level Cleveland Center
06:20PM 42.4831 -83.5225 264° West 302 348 10,000 60 Level Cleveland Center
06:21PM 42.4739 -83.6375 264° West 302 348 10,200 1,500 Climbing Cleveland Center
06:22PM 42.4625 -83.7497 262° West 305 351 13,000 3,000 Climbing Cleveland Center
06:23PM 42.4528 -83.8675 264° West 310 357 16,200 3,600 Climbing Cleveland Center
06:24PM 42.4433 -83.9822 264° West 310 357 20,200 3,780 Climbing Cleveland Center
06:25PM 42.4333 -84.1056 264° West 316 364 23,800 2,820 Climbing Cleveland Center
06:26PM 42.4272 -84.2319 266° West 331 381 25,900 780 Climbing Cleveland Center
06:27PM 42.4347 -84.4506 273° West 344 396 26,000  Climbing Chicago Center
06:28PM 42.4378 -84.5819 272° West 349 402 26,000  Level Chicago Center
06:29PM 42.4411 -84.7150 272° West 353 406 26,000  Level Chicago Center
06:30PM 42.4453 -84.8519 272° West 361 415 26,000  Level Chicago Center
06:32PM 42.4481 -85.0006 272° West 387 445 26,000  Level Chicago Center
06:33PM 42.4506 -85.1478 271° West 391 450 26,000  Level Chicago Center
06:34PM 42.4536 -85.3250 271° West 391 450 26,000  Level Chicago Center
06:35PM 42.4564 -85.4725 272° West 392 451 26,000  Level Chicago Center
06:36PM 42.4581 -85.6200 271° West 392 451 26,000 -120 Level Chicago Center
06:37PM 42.4578 -85.7686 270° West 394 453 25,800 -900 Descending Chicago Center
06:38PM 42.4583 -85.9167 270° West 392 451 24,200 -1,500 Descending Chicago Center
06:39PM 42.4581 -86.0636 270° West 391 450 22,700 -1,500 Descending Chicago Center
06:40PM 42.4581 -86.2100 270° West 389 448 21,200 -1,320 Descending Chicago Center
06:41PM 42.4589 -86.3836 270° West 384 442 20,000 -720 Descending Chicago Center
06:42PM 42.4572 -86.5217 269° West 370 426 19,800 -300 Descending Chicago Center
06:43PM 42.4575 -86.6594 270° West 367 422 19,500 -1,020 Descending Chicago Center
06:44PM 42.4581 -86.7944 270° West 372 428 17,800 -1,800 Descending Chicago Center
06:45PM 42.4572 -86.9356 270° West 364 419 15,900 -1,920 Descending Chicago Center
06:46PM 42.4553 -87.0672 269° West 347 399 13,900 -2,160 Descending Chicago Center
06:47PM 42.4244 -87.2203 255° West 355 409 11,500 -1,920 Descending Chicago Center
06:48PM 42.3919 -87.3431 250° West 352 405 10,000 -720 Descending Chicago Center
06:49PM 42.3611 -87.4553 250° West 346 398 10,000  Level Chicago Center
06:50PM 42.2928 -87.5797 233° Southwest 353 406 10,000  Level Chicago Center
06:51PM 42.2147 -87.6658 219° Southwest 362 417 10,000 -480 Level Chicago Center
06:52PM 42.1486 -87.7336 217° Southwest 300 345 9,100 -1,320 Descending Chicago Center
06:53PM 42.1033 -87.8194 235° Southwest 286 329 7,300 -1,020 Descending Chicago Center
06:54PM 42.0672 -87.9097 242° Southwest 277 319 7,000 -420 Descending Chicago Center
06:55PM 42.0558 -88.0047 261° West 233 268 6,500 -1,080 Descending Chicago Center
06:56PM 42.0667 -88.0833 281° West 212 244 4,900 -1,200 Descending Chicago TRACON
06:57PM 42.0333 -88.1333 228° Southwest 194 223 4,100 -900 Descending Chicago TRACON
06:58PM 41.9833 -88.1167 166° South 197 227 3,100 -600 Descending Chicago TRACON
06:59PM 41.9667 -88.0500 109° East 179 206 2,900 -720 Descending Chicago TRACON
07:00PM 41.9667 -88.0000 90° East 174 200 1,700 -1,080 Descending Chicago TRACON
07:01PM 41.9667 -87.9333 90° East 137 158 800 -900 Descending Chicago TRACON
07:03PM 41.9667 -87.9000 90° East  Level FlightAware Approximate